Time;durP1;ratioP1;P1;durP2;ratioP2;P2;SDS_P1;SDS_P2;PMS_P1;PMS_P2;Temp;Humidity;BMP_temperature;BMP_pressure;BME280_temperature;BME280_humidity;BME280_pressure;Samples;Min_cycle;Max_cycle;Signal;HPM_P1;HPM_P2
2022/02/04 00:20:15;;;;;;;13.80;9.95;;;;;;;5.20;84.42;100395.53;5026627;28;20551;-24
2022/02/04 00:23:33;;;;;;;13.70;10.20;;;;;;;5.14;84.68;100398.97;5028157;28;20488;-24
2022/02/04 00:26:13;;;;;;;13.13;9.45;;;;;;;5.13;83.91;100391.09;5024465;28;20037;-24
2022/02/04 00:29:02;;;;;;;11.90;9.13;;;;;;;5.11;84.36;100411.16;5026168;28;20037;-24
2022/02/04 00:31:34;;;;;;;13.50;9.60;;;;;;;5.07;84.42;100410.22;5026952;28;20052;-24
2022/02/04 00:34:05;;;;;;;12.90;8.93;;;;;;;5.07;84.15;100404.13;5021626;28;20033;-24
2022/02/04 00:38:58;;;;;;;13.20;10.60;;;;;;;5.04;84.08;100410.22;5024685;28;20014;-24
2022/02/04 00:41:28;;;;;;;12.57;9.80;;;;;;;5.03;84.33;100418.03;5024787;28;20049;-24
2022/02/04 00:43:56;;;;;;;13.32;9.45;;;;;;;5.01;83.57;100415.41;5028088;28;20100;-24
2022/02/04 00:46:28;;;;;;;13.25;10.60;;;;;;;4.98;83.74;100418.88;5025833;28;20108;-24
2022/02/04 00:49:03;;;;;;;13.73;9.80;;;;;;;4.96;83.86;100422.31;5025200;28;20040;-24
2022/02/04 00:51:37;;;;;;;14.18;9.77;;;;;;;4.93;84.62;100412.72;5028019;28;20026;-24
2022/02/04 00:54:29;;;;;;;14.32;10.40;;;;;;;4.94;84.57;100424.06;5024900;28;20025;-24
2022/02/04 01:26:35;;;;;;;20.55;11.80;;;;;;;4.83;85.79;100431.75;5032490;28;20044;-24
2022/02/04 01:29:01;;;;;;;16.45;11.15;;;;;;;4.83;86.10;100426.53;5028090;28;20022;-24
2022/02/04 01:31:26;;;;;;;17.65;11.77;;;;;;;4.83;85.24;100427.44;5027470;28;20083;-24
2022/02/04 01:33:54;;;;;;;18.80;12.18;;;;;;;4.83;85.61;100429.16;5030557;28;20053;-24
2022/02/04 01:36:20;;;;;;;20.67;12.02;;;;;;;4.80;85.95;100424.78;5030832;28;20021;-24
2022/02/04 01:38:46;;;;;;;19.42;12.80;;;;;;;4.82;85.68;100432.63;5030732;28;20021;-25
2022/02/04 01:41:12;;;;;;;18.63;13.20;;;;;;;4.82;85.88;100424.78;5031488;28;20021;-25
2022/02/04 01:43:38;;;;;;;20.35;12.90;;;;;;;4.82;85.99;100424.78;5031526;28;20032;-24
2022/02/04 01:46:06;;;;;;;16.75;11.45;;;;;;;4.81;85.98;100412.59;5030797;28;20044;-25
2022/02/04 01:48:32;;;;;;;17.85;12.00;;;;;;;4.82;86.07;100414.34;5029858;28;20060;-24
2022/02/04 01:50:58;;;;;;;19.23;11.82;;;;;;;4.84;86.37;100404.78;5029248;28;20116;-24
2022/02/04 01:53:28;;;;;;;19.92;13.05;;;;;;;4.81;85.82;100399.53;5030122;28;20026;-24
2022/02/04 01:55:55;;;;;;;18.90;11.93;;;;;;;4.82;86.07;100403.88;5028548;28;20401;-24
2022/02/04 01:58:21;;;;;;;21.50;13.75;;;;;;;4.82;85.92;100398.66;5027067;28;20025;-24
2022/02/04 02:00:46;;;;;;;20.02;12.15;;;;;;;4.82;86.40;100398.66;5029934;28;20060;-24
2022/02/04 02:03:12;;;;;;;16.58;10.77;;;;;;;4.81;85.75;100407.38;5029913;28;20025;-24
2022/02/04 02:05:38;;;;;;;22.90;13.32;;;;;;;4.81;86.01;100405.66;5029300;28;20087;-24
2022/02/04 02:08:08;;;;;;;21.80;12.68;;;;;;;4.75;85.80;100396.00;5029709;28;20044;-24
2022/02/04 02:10:34;;;;;;;18.08;11.02;;;;;;;4.80;85.73;100400.41;5030039;28;20028;-24
2022/02/04 02:13:20;;;;;;;17.10;11.65;;;;;;;4.78;85.60;100407.34;5028973;28;20105;-24
2022/02/04 02:16:08;;;;;;;17.08;11.73;;;;;;;4.80;85.81;100410.84;5028010;28;20068;-24
2022/02/04 02:56:20;;;;;;;12.52;9.10;;;;;;;4.78;85.80;100420.41;5029428;28;20025;-24
2022/02/04 02:58:46;;;;;;;13.02;8.43;;;;;;;4.79;86.29;100419.53;5029750;28;20033;-24
2022/02/04 03:01:11;;;;;;;11.90;8.38;;;;;;;4.73;85.75;100409.88;5027626;28;20029;-24
2022/02/04 03:03:37;;;;;;;10.98;7.82;;;;;;;4.78;85.32;100412.56;5029989;28;20033;-24
2022/02/04 03:06:02;;;;;;;11.85;8.32;;;;;;;4.77;85.80;100416.03;5028191;28;20046;-24
2022/02/04 03:08:28;;;;;;;11.50;8.18;;;;;;;4.77;85.44;100416.91;5028612;28;20048;-24
2022/02/04 03:10:56;;;;;;;12.60;9.02;;;;;;;4.77;85.69;100413.44;5028017;28;20029;-24
2022/02/04 03:13:23;;;;;;;10.00;7.90;;;;;;;4.75;85.96;100418.63;5027846;28;20029;-24
2022/02/04 03:16:01;;;;;;;9.63;7.40;;;;;;;4.77;85.75;100411.66;5030153;28;20017;-24
2022/02/04 03:18:30;;;;;;;10.93;7.50;;;;;;;4.75;85.71;100411.69;5029251;28;20432;-24
2022/02/04 03:21:01;;;;;;;9.93;6.68;;;;;;;4.74;86.13;100415.13;5024857;28;20029;-24
2022/02/04 03:23:29;;;;;;;10.55;7.47;;;;;;;4.74;86.36;100409.91;5031631;28;20036;-24
2022/02/04 03:26:04;;;;;;;10.85;7.68;;;;;;;4.73;86.06;100413.38;5032375;28;20043;-24
2022/02/04 03:28:30;;;;;;;10.50;7.35;;;;;;;4.74;85.65;100407.28;5027604;28;20025;-24
2022/02/04 03:30:57;;;;;;;10.40;7.85;;;;;;;4.74;85.84;100399.44;5029653;28;20021;-24
2022/02/04 03:33:26;;;;;;;9.52;7.63;;;;;;;4.73;85.93;100409.88;5025441;28;20040;-24
2022/02/04 03:35:51;;;;;;;10.13;7.13;;;;;;;4.73;85.51;100404.66;5025608;28;20034;-24
2022/02/04 03:38:17;;;;;;;8.63;7.65;;;;;;;4.73;85.63;100413.38;5031364;28;20033;-25
2022/02/04 03:40:43;;;;;;;9.82;7.07;;;;;;;4.72;85.66;100408.13;5031091;28;20443;-24
2022/02/04 03:43:08;;;;;;;10.23;7.28;;;;;;;4.72;85.63;100415.97;5031009;28;20032;-24
2022/02/04 03:45:34;;;;;;;10.48;7.35;;;;;;;4.73;85.52;100416.00;5028248;28;20532;-24
2022/02/04 03:48:00;;;;;;;9.10;6.68;;;;;;;4.71;85.91;100422.94;5028147;28;20109;-24
2022/02/04 03:50:26;;;;;;;10.48;7.40;;;;;;;4.73;85.93;100426.44;5024472;28;22221;-24
2022/02/04 03:52:51;;;;;;;11.38;7.82;;;;;;;4.69;86.30;100419.44;5026377;28;20029;-24
2022/02/04 03:55:17;;;;;;;9.00;6.85;;;;;;;4.71;85.93;100425.53;5020099;28;20040;-24
2022/02/04 03:57:43;;;;;;;11.18;7.65;;;;;;;4.72;86.01;100429.94;5023296;28;20068;-24
2022/02/04 04:00:12;;;;;;;10.18;7.25;;;;;;;4.71;85.83;100433.38;5017889;28;20616;-24
2022/02/04 04:02:37;;;;;;;9.48;6.88;;;;;;;4.72;85.81;100419.47;5025583;28;20435;-24
2022/02/04 04:05:03;;;;;;;10.43;7.80;;;;;;;4.72;85.66;100418.59;5030403;28;20025;-24
2022/02/04 04:07:30;;;;;;;8.38;6.25;;;;;;;4.70;85.37;100421.19;5028469;28;20029;-25
2022/02/04 04:10:03;;;;;;;10.50;6.35;;;;;;;4.71;85.85;100417.69;5024607;28;20034;-24
2022/02/04 04:12:29;;;;;;;8.70;6.72;;;;;;;4.69;85.78;100429.88;5021429;28;20410;-24
2022/02/04 04:14:57;;;;;;;9.98;6.82;;;;;;;4.69;86.13;100434.22;5027263;28;20030;-24
2022/02/04 04:17:22;;;;;;;10.50;6.55;;;;;;;4.69;85.93;100429.88;5028762;28;20021;-24
2022/02/04 04:19:48;;;;;;;9.35;6.63;;;;;;;4.70;85.84;100434.25;5030575;28;20021;-24
2022/02/04 04:22:13;;;;;;;7.95;6.10;;;;;;;4.69;85.69;100422.06;5027451;28;20429;-24
2022/02/04 04:24:39;;;;;;;11.45;7.07;;;;;;;4.69;85.66;100418.56;5029290;28;20485;-24
2022/02/04 04:27:04;;;;;;;9.30;6.57;;;;;;;4.69;85.63;100422.06;5023535;28;20465;-24
2022/02/04 04:29:30;;;;;;;10.38;7.22;;;;;;;4.69;86.07;100423.78;5024078;28;20025;-24
2022/02/04 04:31:55;;;;;;;10.27;6.20;;;;;;;4.69;85.27;100424.66;5022249;28;20493;-24
2022/02/04 04:34:21;;;;;;;8.15;6.57;;;;;;;4.70;86.11;100425.56;5024806;28;20036;-24
2022/02/04 04:36:47;;;;;;;9.77;7.28;;;;;;;4.67;86.17;100431.59;5031080;28;20500;-24
2022/02/04 05:28:34;;;;;;;10.63;8.48;;;;;;;4.65;86.41;100438.56;5037859;28;20102;-24
2022/02/04 05:31:00;;;;;;;12.48;8.50;;;;;;;4.65;85.93;100433.34;5024342;28;20033;-24
2022/02/04 05:33:25;;;;;;;11.68;8.18;;;;;;;4.65;86.35;100438.56;5025996;28;20040;-24
2022/02/04 05:35:51;;;;;;;13.40;8.45;;;;;;;4.60;86.49;100425.44;5030860;28;20153;-24
2022/02/04 05:38:17;;;;;;;10.90;7.90;;;;;;;4.64;85.86;100434.19;5028087;28;20087;-24
2022/02/04 05:40:46;;;;;;;15.98;9.27;;;;;;;4.66;86.01;100428.97;5024631;28;20028;-24
2022/02/04 05:43:30;;;;;;;11.90;8.52;;;;;;;4.62;86.47;100418.50;5027219;28;20044;-25
2022/02/04 05:48:23;;;;;;;14.32;8.60;;;;;;;4.62;86.07;100423.72;5027850;28;20029;-24
2022/02/04 05:51:00;;;;;;;12.82;8.27;;;;;;;4.64;85.83;100423.75;5032477;28;20017;-24
2022/02/04 05:53:29;;;;;;;12.80;9.13;;;;;;;4.63;86.07;100424.59;5030204;28;20032;-25
2022/02/04 05:56:08;;;;;;;13.07;8.38;;;;;;;4.62;86.13;100423.72;5031628;28;20080;-24
2022/02/04 05:58:55;;;;;;;14.05;8.80;;;;;;;4.62;85.74;100422.84;5032913;28;20358;-24
2022/02/04 06:01:39;;;;;;;13.38;8.77;;;;;;;4.62;86.39;100423.72;5038368;28;20425;-24
2022/02/04 06:09:49;;;;;;;15.25;10.00;;;;;;;4.62;86.82;100430.69;5028764;28;20029;-25
2022/02/04 06:22:50;;;;;;;12.50;8.77;;;;;;;4.61;86.72;100442.84;5029784;28;20040;-24
2022/02/04 06:25:15;;;;;;;14.23;9.27;;;;;;;4.61;86.53;100442.00;5029438;28;20064;-24
2022/02/04 06:27:41;;;;;;;14.75;10.40;;;;;;;4.63;85.89;100442.88;5026629;28;20366;-24
2022/02/04 06:30:07;;;;;;;15.43;10.05;;;;;;;4.61;86.97;100439.38;5030259;28;20111;-24
2022/02/04 06:32:33;;;;;;;14.77;9.55;;;;;;;4.61;86.81;100444.59;5026595;28;20489;-24
2022/02/04 06:34:59;;;;;;;13.77;9.45;;;;;;;4.60;86.78;100440.22;5030590;28;20021;-24
2022/02/04 06:37:26;;;;;;;14.43;9.45;;;;;;;4.61;86.62;100442.00;5025067;28;20080;-24
2022/02/04 06:39:51;;;;;;;13.73;10.05;;;;;;;4.61;86.65;100448.06;5030406;28;20025;-25
2022/02/04 06:42:22;;;;;;;14.80;9.63;;;;;;;4.61;86.28;100442.84;5028810;28;20108;-24
2022/02/04 06:44:48;;;;;;;17.02;10.57;;;;;;;4.60;86.48;100435.00;5028534;28;20040;-24
2022/02/04 06:47:13;;;;;;;13.77;10.18;;;;;;;4.62;86.70;100438.50;5027299;28;20025;-24
2022/02/04 06:49:39;;;;;;;15.13;10.05;;;;;;;4.61;87.02;100439.38;5026645;28;20075;-24
2022/02/04 06:52:05;;;;;;;15.32;10.65;;;;;;;4.60;86.49;100442.81;5027719;28;20120;-24
2022/02/04 06:54:31;;;;;;;16.50;9.80;;;;;;;4.63;86.74;100458.53;5023176;28;20079;-25
2022/02/04 06:56:57;;;;;;;15.57;10.15;;;;;;;4.60;86.60;100441.09;5025332;28;20059;-24
2022/02/04 06:59:22;;;;;;;15.45;11.00;;;;;;;4.62;86.33;100451.56;5023894;28;20580;-24
2022/02/04 07:01:48;;;;;;;13.50;9.18;;;;;;;4.61;87.13;100452.44;5029241;28;20078;-24
2022/02/04 07:04:14;;;;;;;15.27;10.63;;;;;;;4.62;86.45;100455.06;5026675;28;20033;-24
2022/02/04 07:06:49;;;;;;;15.55;9.45;;;;;;;4.64;87.04;100457.72;5026885;28;20041;-24
2022/02/04 07:19:49;;;;;;;17.23;10.50;;;;;;;4.64;86.16;100457.72;5025618;28;20428;-24
2022/02/04 07:22:17;;;;;;;14.10;9.35;;;;;;;4.64;86.59;100455.09;5026398;28;20025;-24
2022/02/04 07:24:44;;;;;;;14.52;11.45;;;;;;;4.64;86.40;100462.03;5027284;28;20029;-25
2022/02/04 07:27:11;;;;;;;12.15;9.00;;;;;;;4.65;86.47;100456.84;5025863;28;20040;-24
2022/02/04 07:29:37;;;;;;;13.98;9.32;;;;;;;4.66;86.64;100468.16;5029127;28;20057;-25
2022/02/04 07:32:07;;;;;;;15.57;9.35;;;;;;;4.67;86.34;100467.31;5027841;28;20035;-24
2022/02/04 07:34:44;;;;;;;13.50;9.10;;;;;;;4.66;86.33;100458.59;5027825;28;20033;-24
2022/02/04 07:42:38;;;;;;;12.05;8.98;;;;;;;4.67;86.56;100460.34;5021694;28;20129;-24
2022/02/04 07:45:03;;;;;;;14.30;9.32;;;;;;;4.68;86.78;100458.59;5026629;28;20393;-25
2022/02/04 07:47:29;;;;;;;14.32;9.52;;;;;;;4.69;87.11;100458.63;5026287;28;20025;-24
2022/02/04 07:49:54;;;;;;;16.25;9.75;;;;;;;4.71;86.98;100463.88;5025412;28;20022;-24
2022/02/04 07:52:20;;;;;;;12.82;9.10;;;;;;;4.71;87.38;100458.66;5024545;28;20029;-24
2022/02/04 07:54:46;;;;;;;14.73;10.38;;;;;;;4.72;86.67;100460.41;5024646;28;20120;-24
2022/02/04 07:57:11;;;;;;;14.45;9.48;;;;;;;4.71;86.68;100451.66;5025692;28;20030;-24
2022/02/04 07:59:37;;;;;;;16.98;10.57;;;;;;;4.72;87.16;100456.06;5028573;28;20029;-24
2022/02/04 08:02:03;;;;;;;12.18;9.07;;;;;;;4.74;86.65;100456.94;5028045;28;20056;-24
2022/02/04 08:04:29;;;;;;;13.93;9.25;;;;;;;4.75;86.64;100455.22;5029032;28;20138;-25
2022/02/04 08:07:01;;;;;;;14.50;9.60;;;;;;;4.74;87.26;100448.25;5023668;28;20435;-24
2022/02/04 08:28:54;;;;;;;14.30;9.10;;;;;;;4.85;87.31;100440.50;5005199;28;20029;-24
2022/02/04 08:31:56;;;;;;;13.88;8.82;;;;;;;4.88;87.16;100430.94;5027993;28;20030;-24
2022/02/04 08:55:29;;;;;;;11.38;8.20;;;;;;;5.09;87.08;100412.84;5029704;28;20120;-24
2022/02/04 09:00:43;;;;;;;9.10;6.88;;;;;;;5.14;87.65;100412.03;5029789;28;20481;-24
2022/02/04 09:03:26;;;;;;;12.48;7.45;;;;;;;5.17;88.09;100416.41;5031185;28;20424;-24
2022/02/04 09:06:05;;;;;;;10.38;7.63;;;;;;;5.21;88.15;100412.09;5026560;28;20029;-24
2022/02/04 09:08:32;;;;;;;10.77;6.93;;;;;;;5.24;88.29;100399.91;5024181;28;20441;-24
2022/02/04 09:11:03;;;;;;;9.77;7.13;;;;;;;5.24;88.04;100402.53;5029267;28;20021;-24
2022/02/04 09:19:08;;;;;;;10.30;6.80;;;;;;;5.39;88.36;100409.66;5030324;28;20029;-24
2022/02/04 09:22:08;;;;;;;9.07;6.43;;;;;;;5.44;87.86;100401.81;5029687;28;20110;-24
2022/02/04 09:24:23;;;;;;;9.27;6.80;;;;;;;5.47;88.00;100398.38;5029124;28;20029;-24
2022/02/04 09:26:50;;;;;;;9.65;7.05;;;;;;;5.50;87.83;100406.22;5026655;28;20456;-24
2022/02/04 09:29:15;;;;;;;8.90;6.65;;;;;;;5.51;88.36;100397.53;5029247;28;20091;-24
2022/02/04 09:31:41;;;;;;;10.48;7.18;;;;;;;5.56;87.32;100397.53;5029052;28;20122;-24
2022/02/04 09:34:08;;;;;;;8.80;7.00;;;;;;;5.59;88.01;100395.84;5031191;28;20068;-25
2022/02/04 09:36:34;;;;;;;9.60;7.18;;;;;;;5.61;88.25;100395.84;5029203;28;20017;-24
2022/02/04 09:39:00;;;;;;;9.02;7.13;;;;;;;5.64;87.86;100401.97;5027877;28;20461;-24
2022/02/04 09:41:26;;;;;;;10.07;6.90;;;;;;;5.67;87.32;100395.88;5028730;28;20235;-24
2022/02/04 09:43:52;;;;;;;10.15;7.30;;;;;;;5.68;87.55;100360.13;5028997;28;20026;-24
2022/02/04 09:46:19;;;;;;;9.23;6.82;;;;;;;5.71;87.01;100350.56;5028421;28;20130;-24
2022/02/04 09:48:49;;;;;;;8.95;6.60;;;;;;;5.71;86.81;100365.38;5028833;28;20029;-24
2022/02/04 09:51:19;;;;;;;8.48;6.35;;;;;;;5.75;87.18;100362.81;5026915;28;20026;-24
2022/02/04 10:10:45;;;;;;;10.70;7.95;;;;;;;6.11;87.72;100356.88;5029033;28;20090;-24
2022/02/04 10:13:20;;;;;;;9.52;6.82;;;;;;;6.17;87.79;100354.28;5026171;28;20033;-24
2022/02/04 10:18:28;;;;;;;13.52;8.02;;;;;;;6.35;88.17;100357.84;5027824;28;20037;-24
2022/02/04 10:21:01;;;;;;;9.02;6.90;;;;;;;6.39;88.11;100362.22;5027518;28;20389;-24
2022/02/04 10:23:50;;;;;;;7.97;6.97;;;;;;;6.46;87.90;100365.72;5026320;28;20116;-24
2022/02/04 10:26:16;;;;;;;8.40;6.88;;;;;;;6.51;87.09;100346.53;5026572;28;20037;-24
2022/02/04 10:28:42;;;;;;;8.20;6.05;;;;;;;6.55;86.83;100344.81;5025731;28;20116;-24
2022/02/04 10:31:11;;;;;;;8.38;5.97;;;;;;;6.62;86.72;100346.56;5027876;28;20022;-25
2022/02/04 10:34:04;;;;;;;6.65;5.60;;;;;;;6.64;86.18;100338.72;5022622;28;20045;-24
2022/02/04 10:36:44;;;;;;;6.70;6.00;;;;;;;6.70;85.86;100327.38;5027011;28;20044;-24
2022/02/04 10:39:40;;;;;;;10.52;5.72;;;;;;;6.78;86.21;100321.28;5029549;28;20036;-24
2022/02/04 10:42:10;;;;;;;6.22;4.45;;;;;;;6.79;85.38;100316.88;5028076;28;20026;-24
2022/02/04 10:44:50;;;;;;;5.40;4.80;;;;;;;6.84;85.59;100327.38;5028708;28;20028;-24
2022/02/04 10:47:50;;;;;;;5.68;4.47;;;;;;;6.90;85.45;100316.88;5034719;28;21392;-24
2022/02/04 10:53:38;;;;;;;4.03;3.63;;;;;;;6.95;84.83;100323.00;5034533;28;20037;-24
2022/02/04 10:58:56;;;;;;;3.45;3.15;;;;;;;7.01;84.76;100291.53;5027173;28;20123;-24
2022/02/04 11:04:16;;;;;;;3.45;3.15;;;;;;;7.09;84.76;100294.16;5027959;28;20028;-24
2022/02/04 11:10:17;;;;;;;5.00;3.70;;;;;;;7.13;84.91;100305.50;5031753;28;20021;-24
2022/02/04 11:32:03;;;;;;;3.70;3.00;;;;;;;7.26;84.51;100281.03;5021598;28;20091;-24
2022/02/04 11:34:42;;;;;;;3.55;2.85;;;;;;;7.28;83.99;100278.41;5024110;28;20017;-24
2022/02/04 11:43:44;;;;;;;3.28;2.30;;;;;;;7.30;83.85;100272.28;5025126;28;20029;-24
2022/02/04 11:56:57;;;;;;;2.90;2.58;;;;;;;7.38;83.12;100269.66;5019217;28;20112;-24
2022/02/04 11:59:34;;;;;;;;;;;;;;;7.40;83.25;100267.03;5027035;28;20025;-24
2022/02/04 12:02:00;;;;;;;2.78;2.53;;;;;;;7.39;82.66;100260.88;5027682;28;19916;-24
2022/02/04 12:04:26;;;;;;;4.60;2.65;;;;;;;7.41;82.95;100264.38;5027795;28;20033;-24
2022/02/04 12:06:53;;;;;;;3.60;2.88;;;;;;;7.43;82.66;100256.50;5028621;28;20076;-24
2022/02/04 12:09:35;;;;;;;3.03;2.47;;;;;;;7.40;82.07;100244.25;5028560;28;20501;-24
2022/02/04 12:12:01;;;;;;;2.72;2.47;;;;;;;7.42;81.09;100245.13;5024567;28;20045;-24
2022/02/04 12:14:33;;;;;;;2.97;2.25;;;;;;;7.41;81.78;100238.13;5027887;28;20026;-24
2022/02/04 12:17:07;;;;;;;2.55;2.08;;;;;;;7.44;81.87;100239.91;5022637;28;20117;-24
2022/02/04 12:19:45;;;;;;;2.55;1.73;;;;;;;7.41;81.93;100235.50;5023881;28;20068;-24
2022/02/04 12:22:11;;;;;;;2.55;2.17;;;;;;;7.43;81.46;100230.25;5027305;28;20033;-24
2022/02/04 12:24:42;;;;;;;2.40;2.20;;;;;;;7.46;81.79;100230.25;5027784;28;20040;-24
2022/02/04 12:27:37;;;;;;;4.35;2.35;;;;;;;7.47;81.87;100220.63;5026698;28;20026;-25
2022/02/04 12:30:32;;;;;;;3.08;2.05;;;;;;;7.50;81.73;100225.88;5025925;28;20084;-24
2022/02/04 12:32:57;;;;;;;3.42;1.90;;;;;;;7.49;81.73;100222.38;5022779;28;20362;-24
2022/02/04 12:35:28;;;;;;;1.58;1.48;;;;;;;7.49;81.36;100205.75;5009805;28;20028;-24
2022/02/04 12:37:54;;;;;;;1.75;1.63;;;;;;;7.51;81.43;100204.88;5027982;28;20061;-24
2022/02/04 12:40:21;;;;;;;4.18;2.03;;;;;;;7.55;82.23;100203.09;5028235;28;20123;-24
2022/02/04 12:42:47;;;;;;;2.85;1.70;;;;;;;7.55;81.50;100198.75;5026612;28;20029;-25
2022/02/04 12:45:14;;;;;;;1.73;1.58;;;;;;;7.57;82.03;100183.84;5028129;28;20018;-24
2022/02/04 12:47:41;;;;;;;3.35;1.58;;;;;;;7.60;81.93;100192.59;5028485;28;20037;-24
2022/02/04 12:50:08;;;;;;;2.53;2.33;;;;;;;7.57;81.82;100181.22;5026476;28;20414;-24
2022/02/04 12:52:47;;;;;;;2.55;1.70;;;;;;;7.60;81.47;100182.94;5023890;28;20030;-24
2022/02/04 12:55:21;;;;;;;1.45;1.30;;;;;;;7.65;82.19;100175.06;5028595;28;20759;-24
2022/02/04 12:58:12;;;;;;;2.85;1.90;;;;;;;7.66;81.40;100168.91;5025078;28;20128;-24
2022/02/04 13:11:03;;;;;;;2.95;1.45;;;;;;;7.77;81.40;100125.09;5025263;28;20511;-24
2022/02/04 13:13:36;;;;;;;1.73;1.40;;;;;;;7.78;81.45;100129.50;5024998;28;20116;-24
2022/02/04 13:16:03;;;;;;;1.48;1.38;;;;;;;7.80;80.80;100117.22;5024072;28;20394;-24
2022/02/04 13:18:29;;;;;;;1.55;1.45;;;;;;;7.82;81.17;100120.72;5027954;28;20065;-24
2022/02/04 13:20:56;;;;;;;1.45;1.35;;;;;;;7.81;80.04;100111.06;5021043;28;20029;-24
2022/02/04 13:23:24;;;;;;;1.40;1.30;;;;;;;7.79;79.71;100125.09;5024905;28;20493;-24
2022/02/04 13:25:52;;;;;;;1.40;1.30;;;;;;;7.83;79.93;100109.31;5025140;28;20484;-24
2022/02/04 13:28:20;;;;;;;1.55;1.45;;;;;;;7.83;79.97;100104.06;5029676;28;20030;-24
2022/02/04 13:30:48;;;;;;;1.60;1.48;;;;;;;7.86;80.39;100104.91;5027321;28;20033;-24
2022/02/04 13:33:20;;;;;;;1.85;1.70;;;;;;;7.83;79.77;100104.06;5026476;28;20041;-24
2022/02/04 13:35:55;;;;;;;1.30;1.20;;;;;;;7.82;79.59;100102.34;5027199;28;20041;-24
2022/02/04 13:41:38;;;;;;;2.50;1.65;;;;;;;7.86;80.08;100099.66;5021447;28;20392;-24
2022/02/04 13:47:01;;;;;;;1.48;1.38;;;;;;;7.86;79.44;100086.53;5025242;28;20061;-24
2022/02/04 13:52:10;;;;;;;1.98;1.67;;;;;;;7.85;79.87;100075.19;5025976;28;20031;-24
2022/02/04 13:57:21;;;;;;;1.65;1.40;;;;;;;7.84;78.76;100057.69;5028274;28;20116;-24
2022/02/04 14:00:00;;;;;;;1.52;1.42;;;;;;;7.82;78.76;100056.81;5023981;28;20030;-24
2022/02/04 14:02:32;;;;;;;1.77;1.67;;;;;;;7.82;79.03;100047.22;5029252;28;20037;-24
2022/02/04 14:05:02;;;;;;;1.50;1.40;;;;;;;7.82;78.70;100044.59;5027282;28;20247;-24
2022/02/04 14:07:55;;;;;;;1.55;1.45;;;;;;;7.79;78.79;100028.84;5027088;28;20362;-24
2022/02/04 14:10:30;;;;;;;1.98;1.67;;;;;;;7.79;78.42;100034.09;5026761;28;20064;-24
2022/02/04 14:13:05;;;;;;;1.55;1.45;;;;;;;7.81;78.93;100015.72;5028463;28;20021;-24
2022/02/04 14:15:31;;;;;;;1.83;1.67;;;;;;;7.81;79.10;100027.06;5025768;28;20493;-24
2022/02/04 14:18:03;;;;;;;1.63;1.52;;;;;;;7.79;78.31;100034.09;5026102;28;20112;-24
2022/02/04 14:20:29;;;;;;;2.33;1.77;;;;;;;7.78;78.39;100035.00;5027129;28;20017;-24
2022/02/04 14:22:54;;;;;;;2.33;1.67;;;;;;;7.79;78.33;100017.47;5026618;28;20044;-24
2022/02/04 14:25:20;;;;;;;2.05;1.80;;;;;;;7.79;78.36;100018.34;5027301;28;20104;-24
2022/02/04 14:27:49;;;;;;;2.17;1.90;;;;;;;7.79;78.49;100017.47;5026492;28;20481;-24
2022/02/04 14:30:20;;;;;;;4.57;2.20;;;;;;;7.78;78.19;100019.25;5018067;28;20025;-24
2022/02/04 14:33:02;;;;;;;2.53;1.92;;;;;;;7.77;78.37;100017.47;5023277;28;20043;-24
2022/02/04 14:50:02;;;;;;;1.50;1.40;;;;;;;7.74;78.11;100004.38;5004175;28;20031;-24
2022/02/04 15:03:13;;;;;;;1.65;1.52;;;;;;;7.69;77.11;99982.53;5026510;28;20296;-24
2022/02/04 15:05:43;;;;;;;2.03;1.63;;;;;;;7.66;77.02;99980.81;5030364;28;20021;-24
2022/02/04 15:08:13;;;;;;;1.70;1.23;;;;;;;7.65;76.85;99968.59;5029127;28;20022;-24
2022/02/04 15:10:39;;;;;;;1.73;1.58;;;;;;;7.65;77.07;99970.34;5028591;28;20051;-24
2022/02/04 15:13:13;;;;;;;1.73;1.63;;;;;;;7.66;77.83;99972.06;5027092;28;20018;-24
2022/02/04 15:15:39;;;;;;;1.77;1.67;;;;;;;7.64;77.32;99972.06;5029327;28;20021;-24
2022/02/04 15:18:05;;;;;;;1.60;1.50;;;;;;;7.62;77.32;99967.72;5028971;28;20550;-24
2022/02/04 15:20:30;;;;;;;1.92;1.70;;;;;;;7.62;77.64;99975.59;5030315;28;20034;-24
2022/02/04 15:22:56;;;;;;;2.20;1.63;;;;;;;7.63;77.79;99982.59;5029260;28;20022;-24
2022/02/04 15:25:23;;;;;;;2.30;2.10;;;;;;;7.60;77.45;99975.59;5030707;28;20397;-24
2022/02/04 15:28:41;;;;;;;1.70;1.60;;;;;;;7.57;77.88;99975.66;5029454;28;20029;-24
2022/02/04 15:30:40;;;;;;;1.98;1.88;;;;;;;7.58;77.94;99967.75;5026184;28;20125;-24
2022/02/04 15:33:06;;;;;;;2.53;1.90;;;;;;;7.57;77.83;99955.50;5026785;28;20477;-24
2022/02/04 15:35:32;;;;;;;1.73;1.63;;;;;;;7.57;78.10;99962.53;5029841;28;20021;-24
2022/02/04 15:37:58;;;;;;;2.25;2.00;;;;;;;7.51;77.41;99950.34;5024968;28;20040;-24
2022/02/04 15:40:24;;;;;;;2.15;1.73;;;;;;;7.52;77.66;99952.06;5029497;28;20026;-24
2022/02/04 15:42:58;;;;;;;3.58;1.75;;;;;;;7.50;77.59;99938.06;5028400;28;20071;-24
2022/02/04 15:50:40;;;;;;;1.70;1.60;;;;;;;7.46;77.71;99925.88;5028940;28;20469;-24
2022/02/04 15:56:12;;;;;;;1.70;1.60;;;;;;;7.44;78.16;99931.13;5027486;28;20056;-24
2022/02/04 15:58:51;;;;;;;2.33;1.60;;;;;;;7.41;77.99;99923.28;5025672;28;20226;-24
2022/02/04 16:01:31;;;;;;;2.38;1.90;;;;;;;7.38;78.22;99918.06;5021947;28;20025;-24
2022/02/04 16:04:18;;;;;;;1.70;1.60;;;;;;;7.38;78.02;99922.44;5023508;28;20096;-24
2022/02/04 16:06:46;;;;;;;1.90;1.70;;;;;;;7.35;77.86;99922.47;5024683;28;20079;-24
2022/02/04 16:09:13;;;;;;;2.15;1.92;;;;;;;7.32;78.06;99913.75;5025640;28;20116;-24
2022/02/04 16:16:34;;;;;;;1.63;1.52;;;;;;;7.28;78.21;99919.91;5026636;28;21061;-24
2022/02/04 16:21:35;;;;;;;2.83;1.35;;;;;;;7.24;78.40;99915.53;5024481;28;20164;-22
2022/02/04 16:29:18;;;;;;;1.73;1.50;;;;;;;7.18;78.02;99905.09;5027956;28;20634;-22
2022/02/04 16:31:44;;;;;;;2.00;1.90;;;;;;;7.18;78.18;99905.09;5025650;28;20501;-24
2022/02/04 16:34:12;;;;;;;1.42;1.33;;;;;;;7.10;78.22;99892.03;5024097;28;20033;-22
2022/02/04 16:36:43;;;;;;;1.70;1.60;;;;;;;7.12;78.52;99902.53;5024599;28;20033;-22
2022/02/04 16:39:10;;;;;;;1.50;1.40;;;;;;;7.06;78.74;99888.59;5024317;28;20026;-24
2022/02/04 16:41:54;;;;;;;1.63;1.30;;;;;;;7.06;78.46;99891.22;5024473;28;20118;-22
2022/02/04 16:44:20;;;;;;;1.27;1.23;;;;;;;7.03;78.61;99880.72;5024708;28;20025;-23
2022/02/04 16:46:46;;;;;;;1.65;1.55;;;;;;;7.00;78.49;99872.88;5023645;28;20017;-25
2022/02/04 16:49:13;;;;;;;1.40;1.30;;;;;;;7.01;78.54;99877.25;5022832;28;20040;-23
2022/02/04 16:51:39;;;;;;;1.40;1.30;;;;;;;6.99;78.74;99883.38;5026348;28;20041;-22
2022/02/04 16:54:05;;;;;;;1.63;1.52;;;;;;;6.93;78.50;99868.56;5022681;28;20029;-22
2022/02/04 16:56:31;;;;;;;1.50;1.40;;;;;;;6.94;79.04;99872.94;5027563;28;20025;-22
2022/02/04 16:58:59;;;;;;;1.30;1.20;;;;;;;6.93;78.71;99865.94;5028398;28;20048;-22
2022/02/04 17:01:25;;;;;;;1.10;1.10;;;;;;;6.92;78.95;99861.59;5023256;28;20088;-22
2022/02/04 17:03:51;;;;;;;1.38;1.27;;;;;;;6.87;78.73;99856.38;5029051;28;20030;-22
2022/02/04 17:06:18;;;;;;;2.42;1.95;;;;;;;6.88;78.99;99855.50;5031486;28;20452;-22
2022/02/04 17:08:52;;;;;;;1.50;1.40;;;;;;;6.86;79.09;99840.66;5029853;28;20417;-22
2022/02/04 17:11:22;;;;;;;2.20;1.30;;;;;;;6.85;79.57;99839.78;5030611;28;20477;-22
2022/02/04 17:13:47;;;;;;;1.42;1.33;;;;;;;6.83;79.35;99832.84;5029798;28;20515;-23
2022/02/04 17:16:16;;;;;;;1.48;1.38;;;;;;;6.80;79.11;99829.34;5030248;28;20029;-22
2022/02/04 17:18:43;;;;;;;1.65;1.40;;;;;;;6.79;79.05;99843.34;5029869;28;20049;-22
2022/02/04 17:21:09;;;;;;;1.50;1.40;;;;;;;6.79;79.00;99831.97;5030837;28;20017;-25
2022/02/04 17:23:51;;;;;;;1.40;1.30;;;;;;;6.76;79.22;99831.97;5029842;28;20036;-22
2022/02/04 17:26:19;;;;;;;1.27;1.17;;;;;;;6.75;79.34;99825.00;5031984;28;20109;-22
2022/02/04 17:28:45;;;;;;;1.50;1.35;;;;;;;6.71;79.53;99815.44;5027400;28;20029;-22
2022/02/04 17:31:10;;;;;;;2.00;1.55;;;;;;;6.71;79.11;99824.19;5029434;28;20379;-22
2022/02/04 17:33:38;;;;;;;1.65;1.40;;;;;;;6.70;78.94;99826.81;5029843;28;20517;-22
2022/02/04 17:36:04;;;;;;;1.50;1.40;;;;;;;6.69;78.71;99823.31;5031420;28;20032;-22
2022/02/04 17:38:30;;;;;;;1.30;1.20;;;;;;;6.66;79.59;99813.72;5028486;28;20037;-22
2022/02/04 17:40:57;;;;;;;1.67;1.45;;;;;;;6.65;79.14;99827.72;5031056;28;20227;-22
2022/02/04 17:43:23;;;;;;;1.48;1.25;;;;;;;6.64;79.43;99825.94;5029426;28;20108;-24